Time;durP1;ratioP1;P1;durP2;ratioP2;P2;SDS_P1;SDS_P2;PMS_P1;PMS_P2;Temp;Humidity;BMP_temperature;BMP_pressure;BME280_temperature;BME280_humidity;BME280_pressure;Samples;Min_cycle;Max_cycle;Signal;HPM_P1;HPM_P2
2023/10/23 03:03:52;;;;;;;38.35;13.05;;;;;;;20.56;62.59;100652.50;5089434;28;20203;-77
2023/10/23 03:06:18;;;;;;;43.92;15.38;;;;;;;20.58;62.73;100660.50;5075841;28;20033;-77
2023/10/23 03:08:43;;;;;;;36.58;14.68;;;;;;;20.57;62.89;100664.28;5076792;28;20424;-78
2023/10/23 03:11:09;;;;;;;53.42;21.92;;;;;;;20.43;62.97;100637.78;5071975;28;20028;-77
2023/10/23 03:13:35;;;;;;;43.15;22.45;;;;;;;20.55;62.99;100645.31;5072070;28;20025;-77
2023/10/23 03:16:01;;;;;;;60.80;24.70;;;;;;;20.57;63.21;100656.94;5070592;28;20060;-77
2023/10/23 03:18:27;;;;;;;57.63;25.80;;;;;;;20.52;63.43;100650.31;5072151;28;20037;-76
2023/10/23 03:20:52;;;;;;;63.80;31.92;;;;;;;20.59;63.67;100663.06;5071775;28;20503;-76
2023/10/23 03:23:18;;;;;;;51.95;28.90;;;;;;;20.59;63.71;100663.06;5071934;28;20025;-75
2023/10/23 03:25:44;;;;;;;61.35;31.50;;;;;;;20.56;63.96;100666.16;5071617;28;20025;-75
2023/10/23 03:28:09;;;;;;;61.00;30.25;;;;;;;20.55;63.94;100664.47;5071633;28;20040;-76
2023/10/23 03:30:35;;;;;;;77.65;32.08;;;;;;;20.52;64.11;100653.91;5071553;28;20443;-77
2023/10/23 03:33:00;;;;;;;66.15;31.83;;;;;;;20.53;64.32;100663.81;5071815;28;20033;-78
2023/10/23 03:35:26;;;;;;;53.97;26.90;;;;;;;20.34;64.49;100637.03;5071783;28;20020;-75
2023/10/23 03:37:52;;;;;;;58.50;26.63;;;;;;;20.50;64.22;100661.44;5071330;28;20461;-78
2023/10/23 03:40:17;;;;;;;75.65;24.52;;;;;;;20.40;64.12;100649.94;5071288;28;20400;-77
2023/10/23 03:42:43;;;;;;;49.38;22.15;;;;;;;20.28;64.10;100643.25;5070997;28;20408;-77
2023/10/23 03:45:08;;;;;;;48.88;20.33;;;;;;;20.40;64.04;100663.59;5071258;28;20058;-77
2023/10/23 03:47:34;;;;;;;44.20;19.63;;;;;;;20.34;64.38;100664.34;5071469;28;20040;-77
2023/10/23 03:49:59;;;;;;;49.30;20.65;;;;;;;20.22;64.56;100663.09;5071436;28;20502;-78
2023/10/23 03:52:25;;;;;;;39.20;20.38;;;;;;;20.24;64.61;100674.69;5071332;28;20476;-76
2023/10/23 03:54:50;;;;;;;76.97;20.67;;;;;;;20.14;65.35;100673.25;5071218;28;20032;-76
2023/10/23 03:57:16;;;;;;;59.78;21.50;;;;;;;20.17;65.39;100668.25;5071683;28;20024;-77
2023/10/23 03:59:42;;;;;;;136.45;30.80;;;;;;;20.20;64.60;100667.91;5075628;28;20048;-77
2023/10/23 04:02:07;;;;;;;75.40;21.67;;;;;;;20.16;64.80;100672.03;5075556;28;20024;-78
2023/10/23 04:04:33;;;;;;;61.15;19.98;;;;;;;20.12;64.97;100669.88;5088141;28;20054;-77
2023/10/23 04:06:58;;;;;;;62.10;18.85;;;;;;;20.13;64.49;100677.84;5111427;28;20080;-77
2023/10/23 04:09:24;;;;;;;75.72;20.45;;;;;;;20.07;64.76;100664.94;5111230;28;20023;-77
2023/10/23 04:11:49;;;;;;;74.82;19.88;;;;;;;20.08;64.98;100669.38;5111089;28;20057;-77
2023/10/23 04:14:15;;;;;;;61.10;20.08;;;;;;;20.15;64.19;100681.22;5111051;28;20023;-77
2023/10/23 04:16:42;;;;;;;63.35;18.67;;;;;;;20.10;64.58;100673.63;5109859;28;20028;-77
2023/10/23 04:19:08;;;;;;;66.22;18.20;;;;;;;20.09;64.38;100681.97;5111181;28;20031;-77
2023/10/23 04:21:38;;;;;;;49.33;15.82;;;;;;;19.89;64.41;100658.97;5110895;28;20046;-76
2023/10/23 04:24:05;;;;;;;66.03;17.23;;;;;;;19.98;64.44;100676.97;5108804;28;20063;-77
2023/10/23 04:26:31;;;;;;;70.60;18.85;;;;;;;19.96;64.62;100684.50;5111517;28;20023;-77
2023/10/23 04:28:56;;;;;;;59.45;18.58;;;;;;;19.92;64.83;100673.09;5111356;28;20457;-75
2023/10/23 04:31:22;;;;;;;45.53;14.35;;;;;;;20.01;64.26;100685.66;5111638;28;20028;-79
2023/10/23 04:33:47;;;;;;;48.67;15.20;;;;;;;20.03;63.66;100682.72;5108710;28;20051;-81
2023/10/23 04:36:13;;;;;;;47.13;13.35;;;;;;;20.07;63.27;100689.50;5111368;28;20028;-80
2023/10/23 04:38:38;;;;;;;56.28;14.35;;;;;;;20.09;63.07;100687.44;5111213;28;20023;-81
2023/10/23 04:41:04;;;;;;;59.95;14.48;;;;;;;20.04;62.81;100670.78;5112245;28;20023;-84
2023/10/23 04:43:29;;;;;;;72.82;15.88;;;;;;;20.19;62.59;100692.66;5111977;28;20080;-81
2023/10/23 04:45:56;;;;;;;63.55;13.68;;;;;;;20.20;62.47;100700.66;5112065;28;20586;-80
2023/10/23 04:48:22;;;;;;;46.70;13.98;;;;;;;20.16;62.21;100695.75;5111533;28;20039;-81
2023/10/23 04:50:47;;;;;;;68.10;15.85;;;;;;;20.16;61.44;100677.47;5127795;28;20057;-79
2023/10/23 04:53:13;;;;;;;62.65;15.32;;;;;;;20.29;61.34;100696.84;5133358;28;20027;-78
2023/10/23 04:55:40;;;;;;;81.32;13.98;;;;;;;20.33;61.29;100711.00;5118459;28;20032;-81
2023/10/23 04:58:06;;;;;;;56.55;14.82;;;;;;;20.39;60.94;100704.78;5110885;28;20028;-80
2023/10/23 05:00:35;;;;;;;62.03;14.63;;;;;;;20.19;61.31;100692.66;5111547;28;20023;-79
2023/10/23 05:03:00;;;;;;;81.65;16.88;;;;;;;20.23;61.34;100689.38;5111242;28;20114;-80
2023/10/23 05:05:26;;;;;;;90.43;18.35;;;;;;;20.24;61.47;100696.53;5111734;27;20078;-78
2023/10/23 05:07:51;;;;;;;98.50;19.45;;;;;;;20.44;61.48;100725.03;5111216;28;20410;-76
2023/10/23 05:10:17;;;;;;;93.03;18.58;;;;;;;20.26;61.71;100693.66;5110886;28;20035;-78
2023/10/23 05:12:42;;;;;;;98.28;19.90;;;;;;;20.41;62.20;100725.41;5111231;28;20127;-78
2023/10/23 05:15:08;;;;;;;78.35;20.27;;;;;;;20.49;61.92;100727.19;5110761;28;20055;-77
2023/10/23 05:17:34;;;;;;;100.63;21.65;;;;;;;20.52;61.96;100724.94;5110711;28;20032;-77
2023/10/23 05:20:01;;;;;;;86.50;19.27;;;;;;;20.48;61.94;100729.13;5110715;28;20023;-77
2023/10/23 05:22:26;;;;;;;61.83;20.77;;;;;;;20.35;62.56;100726.16;5110292;28;20478;-77
2023/10/23 05:24:52;;;;;;;75.38;22.02;;;;;;;20.44;62.52;100738.72;5110979;28;20038;-78
2023/10/23 05:27:17;;;;;;;98.40;23.35;;;;;;;20.50;62.66;100740.69;5109773;28;20035;-78
2023/10/23 05:29:43;;;;;;;66.57;20.80;;;;;;;20.55;62.24;100727.31;5109989;28;20026;-78
2023/10/23 05:32:09;;;;;;;70.25;21.42;;;;;;;20.49;62.28;100711.66;5110127;28;20031;-77
2023/10/23 05:34:35;;;;;;;66.80;21.33;;;;;;;20.50;62.29;100720.72;5110825;28;20046;-75
2023/10/23 05:37:01;;;;;;;59.15;24.00;;;;;;;20.60;62.56;100741.28;5091766;28;20043;-78
2023/10/23 05:39:27;;;;;;;82.75;25.38;;;;;;;20.60;62.84;100735.81;5110058;28;20027;-77
2023/10/23 05:41:53;;;;;;;87.38;34.30;;;;;;;20.63;62.72;100742.78;5111883;28;20027;-79
2023/10/23 05:44:18;;;;;;;77.55;34.45;;;;;;;20.66;63.09;100747.03;5115616;28;20032;-78
2023/10/23 05:46:44;;;;;;;84.10;39.45;;;;;;;20.62;63.34;100739.19;5114069;28;20080;-77
2023/10/23 05:49:09;;;;;;;76.40;38.35;;;;;;;20.33;63.50;100684.53;5110303;28;20032;-76
2023/10/23 05:51:35;;;;;;;83.63;38.30;;;;;;;20.71;63.19;100747.31;5110591;28;20141;-77
2023/10/23 05:54:00;;;;;;;92.90;41.15;;;;;;;20.82;62.95;100750.44;5110349;28;20062;-77
2023/10/23 05:56:26;;;;;;;91.82;40.78;;;;;;;20.76;62.48;100733.94;5110153;28;20032;-77
2023/10/23 05:58:51;;;;;;;87.10;41.05;;;;;;;20.95;62.60;100755.22;5110375;28;20027;-76
2023/10/23 06:01:17;;;;;;;104.78;41.17;;;;;;;20.96;61.97;100740.53;5110466;28;20024;-77
2023/10/23 06:03:43;;;;;;;79.00;36.47;;;;;;;21.18;61.99;100766.97;5110217;28;20471;-77
2023/10/23 06:06:09;;;;;;;106.70;37.83;;;;;;;21.14;62.02;100760.16;5112935;28;20106;-78
2023/10/23 06:08:35;;;;;;;82.80;35.95;;;;;;;21.20;62.10;100762.13;5114655;28;20035;-79
2023/10/23 06:11:01;;;;;;;84.97;38.33;;;;;;;21.16;61.81;100747.13;5111412;28;20039;-77
2023/10/23 06:13:26;;;;;;;81.32;38.13;;;;;;;21.18;62.13;100736.88;5112483;28;20122;-76
2023/10/23 06:15:52;;;;;;;85.03;37.55;;;;;;;21.44;61.56;100766.44;5113880;28;20127;-76
2023/10/23 06:18:17;;;;;;;81.20;36.90;;;;;;;21.48;61.62;100765.88;5114029;27;20036;-78
2023/10/23 06:20:43;;;;;;;95.55;37.80;;;;;;;21.53;61.62;100768.03;5113611;28;20035;-78
2023/10/23 06:23:09;;;;;;;97.97;36.35;;;;;;;21.62;61.38;100770.44;5114012;28;20410;-78
2023/10/23 06:25:34;;;;;;;86.35;37.95;;;;;;;21.65;60.87;100767.31;5112317;28;20024;-78
2023/10/23 06:28:00;;;;;;;108.95;38.88;;;;;;;21.73;60.60;100765.53;5113581;27;20031;-76
2023/10/23 06:30:25;;;;;;;103.50;38.47;;;;;;;21.82;60.47;100761.63;5113861;27;20027;-77
2023/10/23 06:32:51;;;;;;;86.50;37.08;;;;;;;21.91;60.41;100763.22;5113407;28;20142;-78
2023/10/23 06:35:16;;;;;;;106.90;37.15;;;;;;;21.88;60.03;100749.88;5117176;28;20454;-77
2023/10/23 06:37:42;;;;;;;108.95;36.15;;;;;;;22.03;59.77;100758.94;5118102;28;20027;-77
2023/10/23 06:40:08;;;;;;;100.03;37.38;;;;;;;22.06;59.59;100766.75;5113923;28;20038;-78
2023/10/23 06:42:34;;;;;;;89.18;35.95;;;;;;;22.11;59.45;100767.00;5113366;28;20471;-76
2023/10/23 06:45:00;;;;;;;88.45;34.80;;;;;;;22.09;59.14;100761.72;5112967;28;20023;-79
2023/10/23 06:47:26;;;;;;;80.78;31.63;;;;;;;22.22;59.06;100771.97;5110974;28;20046;-77
2023/10/23 06:49:51;;;;;;;89.00;31.23;;;;;;;22.26;58.65;100773.28;5112888;28;20031;-79
2023/10/23 06:52:17;;;;;;;114.78;33.47;;;;;;;22.29;58.52;100772.88;5113054;28;20739;-76
2023/10/23 06:54:42;;;;;;;83.75;30.38;;;;;;;22.28;58.23;100776.66;5112605;28;20015;-77
2023/10/23 06:57:08;;;;;;;83.55;28.90;;;;;;;22.32;58.01;100761.53;5113117;28;20027;-77
2023/10/23 06:59:34;;;;;;;61.15;27.45;;;;;;;22.49;57.77;100768.41;5112584;28;20475;-77
2023/10/23 07:02:00;;;;;;;87.75;26.60;;;;;;;22.65;57.50;100770.91;5112697;28;20030;-75
2023/10/23 07:04:27;;;;;;;71.15;25.77;;;;;;;22.75;57.23;100771.38;5112857;28;20049;-77
2023/10/23 07:06:53;;;;;;;71.40;26.13;;;;;;;22.70;56.71;100760.16;5111274;28;20028;-79
2023/10/23 07:09:19;;;;;;;84.43;24.42;;;;;;;22.84;56.04;100760.25;5112611;28;20031;-78
2023/10/23 07:11:51;;;;;;;74.05;24.40;;;;;;;23.05;55.82;100782.13;5112986;28;20027;-77
2023/10/23 07:14:17;;;;;;;69.68;22.88;;;;;;;23.14;55.69;100789.16;5112929;28;20040;-78
2023/10/23 07:16:42;;;;;;;71.13;19.70;;;;;;;23.17;55.15;100781.38;5111948;28;20544;-77
2023/10/23 07:19:10;;;;;;;74.70;20.65;;;;;;;23.12;55.19;100758.31;5112932;28;20027;-76
2023/10/23 07:21:36;;;;;;;50.03;18.33;;;;;;;23.35;55.03;100774.47;5112689;28;20755;-77
2023/10/23 07:24:02;;;;;;;65.10;18.70;;;;;;;23.46;54.68;100777.50;5112857;28;20467;-78
2023/10/23 07:26:28;;;;;;;65.45;18.98;;;;;;;23.50;53.90;100776.06;5113114;28;20023;-77
2023/10/23 07:28:54;;;;;;;60.63;19.85;;;;;;;23.46;54.01;100774.75;5115305;28;20114;-76
2023/10/23 07:31:19;;;;;;;59.47;19.73;;;;;;;23.49;54.16;100760.63;5115062;28;20034;-77
2023/10/23 07:33:45;;;;;;;62.72;18.83;;;;;;;23.57;54.25;100757.72;5112000;28;20502;-77
2023/10/23 07:36:12;;;;;;;90.18;21.08;;;;;;;23.66;53.79;100750.97;5112232;28;20027;-78
2023/10/23 07:38:42;;;;;;;65.80;18.85;;;;;;;23.90;53.57;100773.44;5111862;28;20064;-77
2023/10/23 07:41:11;;;;;;;64.75;19.15;;;;;;;23.95;53.50;100765.41;5112027;28;20020;-77
2023/10/23 07:43:37;;;;;;;73.55;21.20;;;;;;;24.07;53.03;100777.47;5112086;28;20080;-77
2023/10/23 07:46:10;;;;;;;49.92;17.05;;;;;;;24.17;52.98;100772.44;5112126;27;20023;-77
2023/10/23 07:48:36;;;;;;;67.97;18.20;;;;;;;24.24;52.30;100765.06;5088700;28;20040;-78
2023/10/23 07:51:03;;;;;;;55.13;17.35;;;;;;;24.11;52.45;100743.06;5089108;28;20044;-77
2023/10/23 07:53:31;;;;;;;66.13;17.80;;;;;;;24.41;52.32;100768.22;5088719;28;20040;-77
2023/10/23 07:55:58;;;;;;;67.15;18.42;;;;;;;24.53;52.05;100772.88;5089425;28;20039;-77
2023/10/23 07:58:23;;;;;;;57.00;18.58;;;;;;;24.56;51.86;100753.22;5071814;28;20036;-78
2023/10/23 08:00:53;;;;;;;64.43;19.58;;;;;;;24.64;51.23;100753.00;5088507;28;20060;-78
2023/10/23 08:03:19;;;;;;;75.40;18.35;;;;;;;24.90;51.14;100766.75;5088795;28;20479;-77
2023/10/23 08:05:45;;;;;;;60.67;16.80;;;;;;;25.06;50.52;100762.69;5088289;28;20094;-77
2023/10/23 08:08:10;;;;;;;51.28;14.98;;;;;;;25.21;50.24;100756.94;5090373;28;20119;-80
2023/10/23 08:10:36;;;;;;;41.13;14.13;;;;;;;25.35;49.33;100748.38;5089251;28;20059;-79
2023/10/23 08:13:01;;;;;;;50.55;15.70;;;;;;;25.41;48.91;100735.69;5089347;28;20048;-78
2023/10/23 08:15:27;;;;;;;85.70;14.50;;;;;;;25.60;48.76;100729.25;5088968;28;20630;-76
2023/10/23 08:17:52;;;;;;;65.32;14.27;;;;;;;25.94;48.23;100764.66;5088671;28;20028;-77
2023/10/23 08:20:18;;;;;;;38.88;12.80;;;;;;;26.04;47.59;100750.38;5092042;28;20067;-79
2023/10/23 08:22:43;;;;;;;56.35;15.00;;;;;;;25.87;47.03;100697.69;5093833;28;20095;-78
2023/10/23 08:25:10;;;;;;;50.05;14.02;;;;;;;26.24;46.45;100753.00;5092501;28;20051;-77
2023/10/23 08:27:36;;;;;;;55.88;15.20;;;;;;;26.27;46.54;100755.31;5110476;28;20566;-77
2023/10/23 08:30:02;;;;;;;56.13;15.52;;;;;;;26.28;46.52;100759.78;5111041;28;20483;-77
2023/10/23 08:32:28;;;;;;;65.68;16.73;;;;;;;26.26;46.41;100761.94;5110749;28;20023;-78
2023/10/23 08:34:54;;;;;;;79.63;20.20;;;;;;;26.25;46.58;100749.19;5111178;28;20472;-79
2023/10/23 08:37:20;;;;;;;82.75;20.95;;;;;;;26.38;47.13;100768.41;5110755;28;20092;-78
2023/10/23 08:39:45;;;;;;;106.95;23.80;;;;;;;26.46;47.24;100765.38;5110753;28;20057;-78
2023/10/23 08:42:11;;;;;;;85.38;24.75;;;;;;;26.50;47.15;100756.44;5110728;28;20055;-78
2023/10/23 08:44:36;;;;;;;65.40;23.25;;;;;;;26.69;47.23;100765.59;5110861;28;20476;-77
2023/10/23 08:47:02;;;;;;;78.78;22.75;;;;;;;26.88;47.17;100761.81;5111387;28;20106;-78
2023/10/23 08:49:29;;;;;;;101.68;24.63;;;;;;;27.05;46.80;100762.06;5110418;28;20110;-78
2023/10/23 08:51:58;;;;;;;81.53;23.30;;;;;;;27.08;46.92;100760.75;5091395;28;20071;-76
2023/10/23 08:54:24;;;;;;;70.00;19.50;;;;;;;27.30;46.22;100764.75;5110580;28;20106;-78
2023/10/23 08:57:09;;;;;;;80.63;20.33;;;;;;;27.44;45.29;100755.25;5110247;28;20034;-77
2023/10/23 08:59:35;;;;;;;72.60;18.92;;;;;;;27.60;44.99;100762.06;5091232;28;20039;-77
2023/10/23 09:02:01;;;;;;;88.80;20.50;;;;;;;27.68;44.69;100757.06;5110569;28;20472;-77
2023/10/23 09:04:28;;;;;;;75.47;19.67;;;;;;;27.84;44.17;100750.88;5110158;28;20054;-78
2023/10/23 09:06:55;;;;;;;75.20;19.67;;;;;;;27.99;44.10;100753.22;5110474;28;20515;-79
2023/10/23 09:09:23;;;;;;;76.85;20.73;;;;;;;28.19;43.93;100761.25;5110384;28;20524;-77
2023/10/23 09:11:49;;;;;;;60.97;17.88;;;;;;;28.22;42.69;100756.09;5111651;28;20108;-77
2023/10/23 09:14:31;;;;;;;43.78;14.73;;;;;;;27.99;42.55;100737.47;5114443;28;20031;-77
2023/10/23 09:16:57;;;;;;;56.90;14.13;;;;;;;28.07;42.64;100736.34;5111713;28;20509;-76
2023/10/23 09:19:39;;;;;;;62.75;14.25;;;;;;;28.15;43.18;100762.78;5110159;28;20024;-77
2023/10/23 09:22:06;;;;;;;55.83;13.13;;;;;;;28.15;42.42;100746.19;5110166;28;20132;-76
2023/10/23 09:24:32;;;;;;;45.78;11.88;;;;;;;28.09;42.13;100748.00;5109829;28;20430;-77
2023/10/23 09:26:57;;;;;;;45.20;12.43;;;;;;;28.19;41.62;100753.81;5090876;28;20032;-78
2023/10/23 09:29:27;;;;;;;57.28;12.88;;;;;;;28.24;41.54;100751.16;5110114;28;20027;-77
2023/10/23 09:31:53;;;;;;;77.43;13.82;;;;;;;28.16;42.26;100748.75;5110239;28;20092;-76
2023/10/23 09:34:19;;;;;;;70.30;16.45;;;;;;;28.23;42.70;100755.00;5108725;28;20175;-77
2023/10/23 09:36:46;;;;;;;51.05;14.73;;;;;;;28.10;43.46;100744.97;5109802;28;20089;-78
2023/10/23 09:39:12;;;;;;;48.63;16.00;;;;;;;28.00;45.02;100746.63;5111091;28;20039;-78
2023/10/23 09:41:37;;;;;;;58.10;14.52;;;;;;;27.87;44.93;100738.50;5113991;28;20024;-77
2023/10/23 09:44:04;;;;;;;53.72;14.30;;;;;;;27.78;45.10;100735.25;5114592;28;20081;-77
2023/10/23 09:46:31;;;;;;;39.70;13.82;;;;;;;27.71;44.92;100744.69;5114298;28;20106;-77
2023/10/23 09:49:03;;;;;;;45.78;12.98;;;;;;;27.71;44.36;100731.72;5112970;28;20115;-78
2023/10/23 09:51:32;;;;;;;31.83;10.40;;;;;;;27.62;42.43;100741.41;5114150;28;20020;-78
2023/10/23 09:54:03;;;;;;;41.38;12.00;;;;;;;27.46;43.11;100731.03;5113837;28;20410;-76
2023/10/23 09:56:34;;;;;;;34.03;10.73;;;;;;;27.37;43.15;100726.81;5114086;28;20024;-77
2023/10/23 09:59:03;;;;;;;45.72;11.77;;;;;;;27.45;42.87;100724.66;5114668;28;20036;-78
2023/10/23 10:01:36;;;;;;;40.45;11.68;;;;;;;27.41;43.30;100711.47;5112518;28;20026;-77
2023/10/23 10:04:11;;;;;;;39.22;10.05;;;;;;;27.43;42.62;100721.25;5114769;27;20070;-76
2023/10/23 10:06:41;;;;;;;32.47;9.20;;;;;;;27.32;41.93;100712.88;5118421;28;20031;-79
2023/10/23 10:09:12;;;;;;;39.58;10.57;;;;;;;27.24;42.18;100716.81;5115218;28;20046;-76
2023/10/23 10:11:40;;;;;;;41.22;10.13;;;;;;;27.22;42.00;100710.66;5113341;28;20035;-76
2023/10/23 10:14:08;;;;;;;34.67;9.10;;;;;;;27.35;41.27;100706.88;5113581;28;20062;-78
2023/10/23 10:16:33;;;;;;;43.95;9.57;;;;;;;27.33;41.28;100700.75;5111196;28;20040;-76
2023/10/23 10:19:00;;;;;;;25.15;8.27;;;;;;;27.40;40.91;100698.75;5111991;28;20070;-78
2023/10/23 10:21:30;;;;;;;38.40;9.07;;;;;;;27.42;40.30;100680.03;5113647;28;20023;-76
2023/10/23 10:23:58;;;;;;;35.65;9.07;;;;;;;27.51;39.96;100673.13;5113723;28;20106;-77
2023/10/23 10:26:25;;;;;;;45.45;8.30;;;;;;;27.59;39.58;100686.59;5113588;28;20070;-76
2023/10/23 10:28:52;;;;;;;40.03;9.77;;;;;;;27.55;39.70;100679.88;5113299;28;20032;-77
2023/10/23 10:31:17;;;;;;;19.73;7.15;;;;;;;27.54;38.79;100684.56;5113171;27;20372;-78
2023/10/23 10:33:43;;;;;;;52.17;10.13;;;;;;;27.46;38.91;100670.25;5113519;28;20122;-77
2023/10/23 10:36:11;;;;;;;36.25;8.65;;;;;;;27.32;39.31;100679.72;5113372;28;20376;-76
2023/10/23 10:38:36;;;;;;;45.85;9.48;;;;;;;27.29;39.58;100677.44;5113054;28;20591;-77
2023/10/23 10:41:04;;;;;;;24.70;7.45;;;;;;;27.25;39.55;100684.50;5113283;28;20027;-77
2023/10/23 10:43:40;;;;;;;33.88;8.43;;;;;;;27.11;39.14;100669.19;5113013;28;20028;-75
2023/10/23 10:46:22;;;;;;;40.67;8.95;;;;;;;27.03;39.43;100682.22;5113075;28;20546;-78
2023/10/23 10:48:54;;;;;;;33.97;7.90;;;;;;;27.06;39.35;100677.31;5111770;28;20122;-77
2023/10/23 10:51:20;;;;;;;26.45;7.95;;;;;;;27.11;39.29;100682.97;5112652;28;20023;-78
2023/10/23 10:53:47;;;;;;;25.02;6.88;;;;;;;27.06;38.27;100652.47;5112834;28;20027;-76
2023/10/23 10:56:13;;;;;;;50.13;10.93;;;;;;;27.28;38.55;100671.06;5113356;28;20016;-78
2023/10/23 10:58:42;;;;;;;47.17;8.15;;;;;;;27.34;38.69;100674.81;5114234;28;20475;-77
2023/10/23 11:01:09;;;;;;;39.35;8.25;;;;;;;27.19;38.72;100668.84;5113790;28;20030;-78
2023/10/23 11:03:36;;;;;;;49.85;8.80;;;;;;;27.37;39.04;100663.28;5112477;28;20023;-79
2023/10/23 11:06:02;;;;;;;28.75;7.55;;;;;;;27.46;38.66;100645.38;5112824;28;20031;-79
2023/10/23 11:08:28;;;;;;;30.17;6.75;;;;;;;27.52;38.48;100655.47;5113086;28;20080;-78
2023/10/23 11:10:56;;;;;;;31.65;7.10;;;;;;;27.58;38.65;100660.06;5112372;28;20019;-77
2023/10/23 11:13:22;;;;;;;28.50;6.47;;;;;;;27.73;38.16;100657.72;5112584;28;20574;-77
2023/10/23 11:15:48;;;;;;;32.45;7.70;;;;;;;27.74;38.16;100656.63;5112984;28;20102;-77
2023/10/23 11:18:16;;;;;;;32.58;6.93;;;;;;;27.73;37.82;100646.66;5112096;28;20067;-77
2023/10/23 11:20:42;;;;;;;38.72;9.57;;;;;;;27.94;37.86;100651.63;5112275;28;20568;-77
2023/10/23 11:23:07;;;;;;;47.20;6.93;;;;;;;27.97;37.58;100650.31;5112352;28;20109;-77
2023/10/23 11:25:34;;;;;;;44.30;8.95;;;;;;;27.88;37.91;100624.94;5112037;28;20043;-77
2023/10/23 11:28:05;;;;;;;33.25;8.63;;;;;;;28.19;37.60;100656.16;5112262;28;20027;-75
2023/10/23 11:30:30;;;;;;;32.80;7.47;;;;;;;28.12;37.53;100649.88;5111990;28;20026;-77
2023/10/23 11:32:56;;;;;;;22.70;7.28;;;;;;;28.30;37.40;100649.75;5112194;28;20775;-75
2023/10/23 11:35:22;;;;;;;40.72;8.43;;;;;;;28.37;37.23;100650.50;5111798;28;20510;-77
2023/10/23 11:37:48;;;;;;;39.10;7.72;;;;;;;28.38;36.98;100643.84;5111978;28;20027;-77
2023/10/23 11:40:20;;;;;;;39.92;7.88;;;;;;;28.23;36.59;100649.03;5110329;28;20028;-77
2023/10/23 11:42:47;;;;;;;42.33;8.02;;;;;;;28.32;36.94;100653.13;5111754;28;20161;-77
2023/10/23 11:45:17;;;;;;;33.05;7.97;;;;;;;28.34;36.44;100646.28;5111981;28;20028;-78
2023/10/23 11:47:43;;;;;;;20.58;6.55;;;;;;;28.34;36.72;100650.97;5111724;28;20026;-75
2023/10/23 11:50:13;;;;;;;44.65;7.90;;;;;;;28.45;36.59;100645.44;5112134;28;20024;-76
2023/10/23 11:52:43;;;;;;;24.20;7.15;;;;;;;28.46;36.17;100637.97;5111989;28;20396;-77
2023/10/23 11:55:11;;;;;;;27.10;6.38;;;;;;;28.30;35.86;100649.75;5111832;28;20134;-76
2023/10/23 11:57:40;;;;;;;17.45;5.55;;;;;;;28.24;35.90;100640.50;5111561;28;20074;-77
2023/10/23 12:00:11;;;;;;;29.48;6.75;;;;;;;28.19;35.62;100645.94;5111796;28;20110;-77
2023/10/23 12:02:40;;;;;;;27.48;7.00;;;;;;;28.08;36.01;100642.06;5111250;28;20023;-78
2023/10/23 12:05:10;;;;;;;28.90;7.13;;;;;;;27.98;36.07;100616.88;5111593;28;20046;-77
2023/10/23 12:07:37;;;;;;;39.42;7.75;;;;;;;28.03;36.18;100636.38;5111605;28;20114;-76
2023/10/23 12:10:03;;;;;;;26.80;6.68;;;;;;;28.03;36.15;100643.81;5111817;28;20080;-78
2023/10/23 12:12:29;;;;;;;41.95;7.22;;;;;;;27.86;36.13;100649.19;5111342;28;20118;-78
2023/10/23 12:14:54;;;;;;;41.00;7.35;;;;;;;27.79;36.11;100640.19;5092012;28;20114;-76
2023/10/23 12:17:20;;;;;;;23.52;6.07;;;;;;;27.59;36.40;100634.09;5110004;28;20487;-77
2023/10/23 12:19:45;;;;;;;30.23;6.35;;;;;;;27.46;36.96;100620.50;5111509;28;20067;-76
2023/10/23 12:22:11;;;;;;;25.60;5.88;;;;;;;27.48;36.95;100643.22;5110373;28;20047;-76
2023/10/23 12:24:36;;;;;;;22.88;5.43;;;;;;;27.35;37.40;100646.13;5111233;28;20035;-78
2023/10/23 12:27:02;;;;;;;30.40;6.05;;;;;;;27.39;37.75;100650.94;5111494;28;20078;-77
2023/10/23 12:29:28;;;;;;;28.80;6.07;;;;;;;27.29;37.90;100647.91;5111016;28;20019;-76
2023/10/23 12:31:53;;;;;;;20.52;5.88;;;;;;;27.26;38.22;100639.22;5111065;28;20058;-77
2023/10/23 12:34:19;;;;;;;29.08;8.02;;;;;;;27.12;38.71;100651.53;5110711;28;20059;-78
2023/10/23 12:36:44;;;;;;;21.00;6.07;;;;;;;27.06;39.24;100641.44;5111084;28;20403;-76
2023/10/23 12:39:10;;;;;;;34.30;6.95;;;;;;;27.10;39.01;100650.91;5111283;28;20071;-76
2023/10/23 12:41:35;;;;;;;28.10;7.00;;;;;;;26.86;38.77;100637.00;5116750;28;20047;-77
2023/10/23 12:44:01;;;;;;;40.15;7.72;;;;;;;26.99;38.75;100656.16;5120190;28;20034;-76
2023/10/23 12:46:26;;;;;;;32.65;6.40;;;;;;;26.89;39.28;100653.09;5117613;28;20383;-75
2023/10/23 12:48:52;;;;;;;33.70;6.65;;;;;;;26.78;39.19;100629.00;5112018;28;20027;-77
2023/10/23 12:51:20;;;;;;;28.85;6.93;;;;;;;26.98;38.88;100646.19;5111252;28;20027;-75
2023/10/23 12:53:45;;;;;;;33.60;8.30;;;;;;;26.95;38.72;100641.13;5110973;28;20040;-77
2023/10/23 12:56:11;;;;;;;31.98;8.13;;;;;;;26.93;38.61;100643.28;5110612;28;20084;-76
2023/10/23 12:58:36;;;;;;;27.60;6.97;;;;;;;26.87;38.36;100638.69;5110586;28;20058;-78
2023/10/23 13:01:02;;;;;;;26.38;6.20;;;;;;;26.77;38.65;100645.78;5111005;28;20498;-77
2023/10/23 13:03:28;;;;;;;44.22;7.03;;;;;;;26.79;38.52;100647.22;5110728;28;20063;-77
2023/10/23 13:05:53;;;;;;;42.83;8.75;;;;;;;26.70;39.01;100648.59;5108390;28;20071;-77
2023/10/23 13:08:19;;;;;;;38.15;7.07;;;;;;;26.66;39.08;100649.31;5110682;28;20535;-77
2023/10/23 13:10:45;;;;;;;50.95;9.05;;;;;;;26.63;39.34;100630.44;5110291;28;20024;-76
2023/10/23 13:13:10;;;;;;;24.95;7.65;;;;;;;26.66;39.54;100646.53;5110193;28;20015;-77
2023/10/23 13:15:36;;;;;;;37.53;6.85;;;;;;;26.57;39.65;100647.91;5109679;28;20486;-76
2023/10/23 13:18:02;;;;;;;59.28;8.73;;;;;;;26.63;39.81;100647.84;5109951;28;20043;-77
2023/10/23 13:20:28;;;;;;;40.17;6.82;;;;;;;26.42;39.22;100621.53;5110269;28;20479;-77
2023/10/23 13:22:53;;;;;;;38.53;8.65;;;;;;;26.32;39.85;100629.50;5110460;28;20096;-78
2023/10/23 13:25:19;;;;;;;38.03;8.25;;;;;;;26.47;40.05;100649.28;5110302;28;20071;-77
2023/10/23 13:27:44;;;;;;;35.35;7.40;;;;;;;26.54;39.50;100648.38;5110356;28;20028;-77
2023/10/23 13:30:10;;;;;;;31.20;7.13;;;;;;;26.63;39.44;100645.09;5110196;28;20035;-77
2023/10/23 13:32:38;;;;;;;40.42;8.10;;;;;;;26.66;39.94;100644.63;5109934;28;20070;-79
2023/10/23 13:35:07;;;;;;;52.63;11.25;;;;;;;26.62;39.94;100643.41;5112361;28;20040;-77
2023/10/23 13:37:34;;;;;;;46.13;9.75;;;;;;;26.58;40.21;100647.69;5114292;28;20024;-76
2023/10/23 13:40:00;;;;;;;32.22;7.82;;;;;;;26.55;40.05;100655.56;5110373;28;20023;-77
2023/10/23 13:42:27;;;;;;;54.92;8.50;;;;;;;26.40;40.17;100629.19;5109812;28;20433;-79
2023/10/23 13:44:52;;;;;;;35.63;7.90;;;;;;;26.40;40.42;100648.50;5109750;28;20480;-77
2023/10/23 13:47:17;;;;;;;33.85;8.27;;;;;;;26.49;40.40;100662.84;5109635;28;20026;-77
2023/10/23 13:49:43;;;;;;;42.88;8.95;;;;;;;26.42;40.39;100656.56;5109802;28;20036;-78
2023/10/23 13:52:09;;;;;;;49.15;8.35;;;;;;;26.45;40.67;100661.63;5109692;28;20444;-77
2023/10/23 13:54:35;;;;;;;33.17;7.93;;;;;;;26.32;40.78;100654.31;5109970;28;20023;-76
2023/10/23 13:57:00;;;;;;;35.97;7.93;;;;;;;26.28;40.90;100663.25;5109840;28;20479;-77
2023/10/23 13:59:26;;;;;;;42.55;7.32;;;;;;;26.15;41.14;100655.94;5109695;28;20084;-79
2023/10/23 14:01:51;;;;;;;33.47;8.45;;;;;;;25.99;41.64;100645.47;5109510;28;20071;-75
2023/10/23 14:04:17;;;;;;;24.13;7.43;;;;;;;25.89;41.58;100662.50;5109799;28;20123;-78
2023/10/23 14:06:42;;;;;;;43.85;9.30;;;;;;;25.88;41.90;100658.06;5109667;28;20398;-77
2023/10/23 14:09:09;;;;;;;51.72;9.70;;;;;;;25.77;42.30;100664.28;5109670;28;20038;-77
2023/10/23 14:11:35;;;;;;;41.85;9.77;;;;;;;25.61;42.25;100659.31;5109685;28;20038;-77